createdAt,value
2024-01-15T00:17:38.241Z,90.1
2024-01-15T00:37:38.536Z,90.7
2024-01-15T00:57:39.619Z,91.3
2024-01-15T01:17:38.485Z,91.5
2024-01-15T01:46:35.074Z,91.2
2024-01-15T01:57:38.567Z,90.8
2024-01-15T02:17:39.060Z,90.5
2024-01-15T02:37:38.604Z,90.5
2024-01-15T02:57:38.618Z,90.6
2024-01-15T03:17:38.871Z,90.5
2024-01-15T03:37:38.726Z,90.7
2024-01-15T03:57:38.800Z,90.6
2024-01-15T04:17:38.855Z,90.5
2024-01-15T04:37:39.182Z,90.6
2024-01-15T04:57:38.946Z,90.8
2024-01-15T05:17:39.259Z,91.1
2024-01-15T05:37:39.112Z,91.2
2024-01-15T05:57:39.332Z,91
2024-01-15T06:17:39.262Z,90.7
2024-01-15T06:37:39.538Z,90.6
2024-01-15T06:57:39.292Z,90.8
2024-01-15T07:17:39.432Z,91
2024-01-15T07:37:39.348Z,90.5
2024-01-15T07:57:39.557Z,89.9
2024-01-15T08:17:39.540Z,89.5
2024-01-15T08:37:39.608Z,88.7
2024-01-15T08:57:39.567Z,88
2024-01-15T09:17:39.693Z,86.7
2024-01-15T09:37:44.532Z,86.1
2024-01-15T09:57:39.839Z,86.4
2024-01-15T10:17:39.885Z,86.1
2024-01-15T10:37:39.858Z,85.6
2024-01-15T10:57:40.089Z,85.6
2024-01-15T11:17:40.229Z,85.9
2024-01-15T11:37:40.564Z,86.6
2024-01-15T12:17:40.351Z,87.1
2024-01-15T12:37:40.610Z,87.2
2024-01-15T12:57:40.248Z,86.8
2024-01-15T13:17:40.299Z,87.3
2024-01-15T13:37:40.383Z,87.2
2024-01-15T13:57:40.645Z,88.9
2024-01-15T14:17:40.651Z,90.9
2024-01-15T14:37:40.805Z,92.4
2024-01-15T14:57:41.077Z,92.7
2024-01-15T15:17:40.743Z,92
2024-01-15T15:37:40.868Z,90.9
2024-01-15T15:57:40.801Z,90.2
2024-01-15T16:23:01.362Z,90.3
2024-01-15T16:37:41.143Z,91.5
2024-01-15T16:57:41.138Z,91.7
2024-01-15T17:17:41.146Z,90.9
2024-01-15T17:37:40.958Z,90.5
2024-01-15T17:57:41.395Z,89.7
2024-01-15T18:17:42.654Z,89.3
2024-01-15T18:37:41.360Z,88.6
2024-01-15T18:57:41.541Z,88
2024-01-15T19:17:41.327Z,87.5
2024-01-15T19:37:41.297Z,87.3
2024-01-15T19:57:41.309Z,87.3
2024-01-15T20:17:41.557Z,86.5
2024-01-15T20:37:41.472Z,86.3
2024-01-15T20:57:41.561Z,85.4
2024-01-15T21:17:41.630Z,85.4
2024-01-15T21:37:41.745Z,85
2024-01-15T21:59:09.699Z,84.7
2024-01-15T22:17:41.819Z,84.4
2024-01-15T22:37:43.406Z,84.3
2024-01-15T22:57:42.001Z,86.3
2024-01-15T23:17:41.884Z,87.6
2024-01-15T23:37:41.994Z,89
2024-01-15T23:57:42.024Z,89
